Terminal Aerodrome Forecast
Issued by NWS Central Illinois

Home | Current Version | Previous Version | Text Only | Print | Product List | Glossary On
Versions: 1 2 3 4 5 6 7 8 9 10 11 12 13 14 15 16
000
FTUS43 KILX 221100
TAFSPI
TAF
KSPI 221139Z 2212/2312 18007KT P6SM SKC
     FM221500 20009KT P6SM SCT050
     FM221900 20014KT P6SM BKN250
     FM230200 23004KT P6SM VCTS SCT060CB
     FM230800 25006KT 5SM BR VCSH BKN025=

USA.gov is the U.S. government's official web portal to all federal, state and local government web resources and services.